Laramie, WY

4:33 PM MDT on October 25, 2014 (GMT -0600)
Laramie Regional | Change Station
CLOSE
Current Station
Airport
Location: Laramie,
Elevation: 7270 ft
Nearby Weather Stations

Elev 7270 ft 41.32 °N, 105.67 °W | Updated 40 minutes ago

Clear
Clear
71 °F
Feels Like 71 °F
N
18
Wind Variable Wind from WSW
Gusts 25 mph

Today
High -- | Low -- °F
--% Chance of Precip.
Yesterday
High -- | Low -- °F
Precip. -- in
7:25 AM 6:06 PM
Waxing Crescent, 4% visible
Pressure 29.92 in
Visibility 10.0 miles
Clouds Clear
Dew Point 14 °F
Humidity 11%
Rainfall 0.00 in
Snow Depth Not available.
UV 2 out of 12
Pollen 3.00 out of 12
Air Quality Not available.
Flu Activity Sporadic
METAR KLAR 252153Z AUTO 24016G22KT 10SM CLR 22/M10 A3017 RMK AO2 SLP131 T02171100

More Conditions Fewer Conditions

Pressure 29.92 in
Visibility 10.0 miles
Clouds Clear
Dew Point 14 °F
Humidity 11%
Rainfall 0.00 in
Snow Depth Not available.
UV 2 out of 12
Pollen 3.00 out of 12
Air Quality Not available.
Flu Activity Sporadic
METAR KLAR 252153Z AUTO 24016G22KT 10SM CLR 22/M10 A3017 RMK AO2 SLP131 T02171100

More Conditions Fewer Conditions

10-Day Weather Forecast

Almanac

Astronomy

Oct. 25, 2014 Rise Set
Actual Time 7:25 AM MDT 6:06 PM MDT
Civil Twilight 6:57 AM MDT 6:34 PM MDT
Nautical Twilight 6:24 AM MDT 7:07 PM MDT
Astronomical Twilight 5:52 AM MDT 7:39 PM MDT
Moon 9:07 AM MDT 7:30 PM MDT
Length of Visible Light 11h 37m
Length of Day
10h 41m
Tomorrow will be 2m 32s shorter.
Waxing Crescent, 4% of the Moon is Illuminated
Today
Waxing Crescent
Oct 30
First Quarter
Nov 6
Full
Nov 14
Last Quarter
Nov 22
New

Today's Extremes

State Highs State Lows

Community

WunderPhotos

Upload Photos

1,765,016 photos uploaded!

Nearby

Snow Depth

Station Depth Elevation
Cinnabar Park 0 in 9690 ft
Sand Lake 3 in 10050 ft
North French Creek 0 in 10130 ft
Old Battle 1 in 9920 ft
Middle Powder 1 in 7760 ft

Earthquake Activity

City Distance Mag. Time & Date
No recent earthquake activity has been reported nearby.
Minimum magnitude displayed is 2.5.

Coastal Water Temperatures

Place Temperature
No Stations Reporting

Nearby Weather Stations